createdAt,value
2019-04-26T00:01:48.949Z,25.70
2019-04-26T00:04:18.775Z,29.80
2019-04-26T00:06:49.112Z,36.73
2019-04-26T00:09:20.391Z,40.30
2019-04-26T00:11:51.661Z,55.57
2019-04-26T00:14:22.861Z,94.07
2019-04-26T00:16:54.095Z,212.70
2019-04-26T00:19:23.913Z,135.33
2019-04-26T00:21:54.177Z,67.27
2019-04-26T00:24:24.172Z,52.93
2019-04-26T00:26:53.749Z,30.80
2019-04-26T00:29:23.261Z,28.40
2019-04-26T00:31:52.886Z,28.23
2019-04-26T00:34:22.663Z,28.30
2019-04-26T00:36:52.182Z,25.23
2019-04-26T00:39:24.144Z,25.10
2019-04-26T00:41:52.943Z,28.47
2019-04-26T00:44:22.868Z,26.00
2019-04-26T00:46:55.079Z,27.43
2019-04-26T00:49:24.961Z,26.57
2019-04-26T00:51:55.991Z,32.23
2019-04-26T00:54:26.487Z,30.60
2019-04-26T00:56:56.564Z,29.90
2019-04-26T00:59:26.840Z,29.70
2019-04-26T01:01:58.135Z,50.60
2019-04-26T01:04:27.583Z,86.80
2019-04-26T01:06:58.635Z,128.60
2019-04-26T01:09:28.214Z,85.00
2019-04-26T01:11:57.860Z,125.70
2019-04-26T01:14:27.493Z,53.57
2019-04-26T01:16:56.945Z,365.17
2019-04-26T01:19:27.219Z,212.43
2019-04-26T01:22:00.817Z,149.77
2019-04-26T01:24:33.414Z,219.47
2019-04-26T01:27:04.911Z,255.63
2019-04-26T01:29:36.718Z,334.53
2019-04-26T01:32:09.390Z,479.63
2019-04-26T01:34:41.620Z,386.67
2019-04-26T01:37:11.826Z,322.87
2019-04-26T01:39:45.939Z,400.70
2019-04-26T01:42:20.878Z,470.03
2019-04-26T01:44:54.763Z,429.13
2019-04-26T01:47:24.795Z,265.27
2019-04-26T01:49:54.844Z,311.93
2019-04-26T01:52:25.647Z,333.93
2019-04-26T01:54:55.468Z,271.07
2019-04-26T01:57:28.037Z,216.87
2019-04-26T01:59:59.401Z,180.67
2019-04-26T02:02:30.625Z,203.77
2019-04-26T02:05:01.882Z,241.60
2019-04-26T02:07:33.682Z,193.70
2019-04-26T02:10:03.268Z,162.50
2019-04-26T02:12:33.132Z,175.87
2019-04-26T02:15:02.797Z,195.57
2019-04-26T02:17:33.592Z,116.27
2019-04-26T02:20:06.690Z,40.60
2019-04-26T02:22:40.047Z,62.90
2019-04-26T02:25:10.019Z,313.43
2019-04-26T02:27:39.778Z,270.20
2019-04-26T02:30:09.617Z,150.77
2019-04-26T02:32:40.400Z,124.00
2019-04-26T02:35:11.576Z,140.17
2019-04-26T02:37:41.580Z,359.60
2019-04-26T02:40:14.253Z,394.00
2019-04-26T02:42:45.022Z,221.10
2019-04-26T02:45:19.294Z,257.30
2019-04-26T02:47:52.636Z,229.00
2019-04-26T02:50:28.337Z,266.00
2019-04-26T02:53:00.588Z,104.90
2019-04-26T02:55:36.961Z,77.83
2019-04-26T02:58:05.143Z,82.50
2019-04-26T03:00:35.876Z,104.47
2019-04-26T03:03:07.827Z,79.30
2019-04-26T03:05:40.840Z,59.60
2019-04-26T03:08:13.441Z,93.63
2019-04-26T03:10:45.997Z,62.27
2019-04-26T03:13:19.181Z,32.13
2019-04-26T03:15:52.787Z,59.00
2019-04-26T03:18:26.979Z,228.23
2019-04-26T03:20:59.443Z,289.10
2019-04-26T07:54:14.085Z,38.33
2019-04-26T07:56:46.633Z,35.03
2019-04-26T07:59:17.243Z,35.83
2019-04-26T08:01:49.493Z,33.33
2019-04-26T08:04:23.811Z,34.73
2019-04-26T08:06:56.362Z,35.65
2019-04-26T08:09:28.238Z,27.20
2019-04-26T08:12:00.856Z,32.40
2019-04-26T08:14:35.343Z,28.65
2019-04-26T08:17:10.460Z,35.45
2019-04-26T08:19:43.186Z,35.88
2019-04-26T08:22:21.740Z,33.02
2019-04-26T08:24:49.545Z,32.83
2019-04-26T08:27:23.961Z,34.67
2019-04-26T08:29:56.435Z,36.40
2019-04-26T08:32:32.027Z,39.67
2019-04-26T08:35:08.151Z,37.65
2019-04-26T08:37:38.165Z,31.97
2019-04-26T08:40:09.704Z,30.02
2019-04-26T08:42:41.835Z,34.70
2019-04-26T08:45:16.722Z,39.27
2019-04-26T08:47:51.073Z,38.92
2019-04-26T08:50:23.665Z,29.40
2019-04-26T08:52:57.826Z,32.08
2019-04-26T08:55:29.126Z,31.65
2019-04-26T08:58:01.788Z,27.50
2019-04-26T09:00:36.029Z,26.87
2019-04-26T09:03:11.581Z,36.03
2019-04-26T09:05:45.704Z,35.48
2019-04-26T09:08:16.831Z,35.05
2019-04-26T09:10:48.705Z,29.52
2019-04-26T09:13:20.145Z,28.45
2019-04-26T09:15:52.697Z,26.45
2019-04-26T09:18:22.332Z,26.48
2019-04-26T09:20:51.799Z,24.72
2019-04-26T09:23:22.892Z,23.70
2019-04-26T09:25:59.261Z,25.02
2019-04-26T09:28:26.974Z,32.08
2019-04-26T09:30:58.701Z,26.48
2019-04-26T09:33:31.707Z,21.12
2019-04-26T09:36:01.042Z,23.10
2019-04-26T09:38:30.602Z,26.77
2019-04-26T09:41:00.629Z,20.77
2019-04-26T09:43:32.053Z,19.37
2019-04-26T09:46:03.189Z,36.23
2019-04-26T09:48:36.640Z,24.55
2019-04-26T09:51:07.511Z,25.50
2019-04-26T09:53:39.573Z,24.12
2019-04-26T09:56:08.380Z,31.82
2019-04-26T09:58:37.985Z,27.22
2019-04-26T10:01:07.596Z,25.68
2019-04-26T10:03:37.025Z,27.67
2019-04-26T10:06:08.209Z,27.27
2019-04-26T10:08:39.177Z,35.33
2019-04-26T10:11:10.879Z,25.25
2019-04-26T10:13:43.074Z,20.60
2019-04-26T10:16:15.368Z,19.00
2019-04-26T10:18:46.503Z,22.50
2019-04-26T10:21:16.121Z,31.00
2019-04-26T10:23:45.614Z,27.32
2019-04-26T10:26:15.236Z,26.52
2019-04-26T10:28:46.733Z,29.55
2019-04-26T10:31:17.183Z,23.67
2019-04-26T10:33:46.892Z,19.12
2019-04-26T10:36:16.386Z,31.17
2019-04-26T10:38:45.931Z,29.70
2019-04-26T10:41:15.544Z,34.75
2019-04-26T10:43:45.090Z,23.20
2019-04-26T10:46:14.703Z,24.43
2019-04-26T10:48:45.544Z,26.15
2019-04-26T10:51:17.176Z,31.57
2019-04-26T10:53:50.407Z,21.17
2019-04-26T10:56:24.206Z,29.00
2019-04-26T10:58:54.346Z,25.15
2019-04-26T11:01:25.383Z,29.18
2019-04-26T11:03:54.838Z,31.42
2019-04-26T11:06:27.949Z,34.92
2019-04-26T11:08:55.752Z,32.28
2019-04-26T11:11:25.234Z,27.55
2019-04-26T11:13:57.430Z,31.65
2019-04-26T11:16:26.421Z,30.52
2019-04-26T11:18:57.199Z,29.87
2019-04-26T11:21:27.478Z,30.92
2019-04-26T11:23:56.988Z,31.42
2019-04-26T11:26:27.537Z,31.10
2019-04-26T11:28:57.237Z,30.55
2019-04-26T11:31:27.818Z,32.42
2019-04-26T11:34:05.095Z,20.37
2019-04-26T11:36:29.725Z,28.32
2019-04-26T11:39:01.370Z,25.57
2019-04-26T11:41:33.976Z,20.35
2019-04-26T11:44:05.372Z,36.17
2019-04-26T11:46:44.192Z,26.60
2019-04-26T11:49:07.148Z,24.20
2019-04-26T11:51:37.128Z,27.25
2019-04-26T11:54:06.741Z,28.65
2019-04-26T11:56:37.569Z,24.87
2019-04-26T11:59:07.521Z,28.00
2019-04-26T12:01:40.493Z,24.02
2019-04-26T12:04:09.322Z,25.35
2019-04-26T12:06:40.532Z,32.88
2019-04-26T12:09:12.027Z,28.50
2019-04-26T12:11:49.285Z,27.80
2019-04-26T12:14:20.074Z,35.78
2019-04-26T12:17:04.489Z,23.45
2019-04-26T12:19:35.114Z,25.27
2019-04-26T12:22:08.359Z,28.95
2019-04-26T12:24:36.229Z,22.55
2019-04-26T12:27:06.043Z,24.70
2019-04-26T12:29:35.679Z,23.67
2019-04-26T12:32:05.415Z,21.45
2019-04-26T12:34:34.956Z,28.23
2019-04-26T12:37:04.670Z,30.70
2019-04-26T12:39:36.633Z,24.32
2019-04-26T12:42:08.205Z,27.52
2019-04-26T12:44:41.138Z,20.80
2019-04-26T12:47:11.455Z,22.52
2019-04-26T12:49:41.065Z,21.48
2019-04-26T12:52:10.786Z,24.57
2019-04-26T12:54:42.953Z,21.90
2019-04-26T12:57:16.165Z,18.55
2019-04-26T12:59:44.821Z,21.80
2019-04-26T13:02:16.522Z,20.88
2019-04-26T13:04:45.466Z,24.07
2019-04-26T13:07:23.487Z,22.37
2019-04-26T13:09:50.079Z,80.95
2019-04-26T13:12:21.181Z,33.88
2019-04-26T13:14:52.340Z,24.40
2019-04-26T13:17:23.521Z,28.52
2019-04-26T13:19:53.882Z,23.27
2019-04-26T13:22:24.147Z,19.60
2019-04-26T13:24:54.091Z,23.45
2019-04-26T13:27:23.616Z,19.95
2019-04-26T13:30:01.808Z,22.00
2019-04-26T13:32:24.253Z,20.02
2019-04-26T13:34:53.662Z,30.05
2019-04-26T13:37:23.263Z,26.00
2019-04-26T13:39:55.276Z,23.62
2019-04-26T13:42:24.336Z,29.20
2019-04-26T13:44:55.449Z,24.72
2019-04-26T13:47:26.829Z,16.65
2019-04-26T13:49:58.025Z,19.80
2019-04-26T13:52:27.444Z,26.27
2019-04-26T13:54:56.834Z,32.53
2019-04-26T13:57:26.405Z,25.37
2019-04-26T13:59:55.863Z,33.45
2019-04-26T14:02:25.373Z,56.02
2019-04-26T14:04:54.993Z,114.82
2019-04-26T14:07:25.920Z,37.20
2019-04-26T14:09:55.713Z,19.90
2019-04-26T14:12:25.391Z,23.27
2019-04-26T14:14:54.850Z,20.25
2019-04-26T14:17:29.820Z,22.62
2019-04-26T14:19:57.987Z,106.40
2019-04-26T14:22:29.208Z,25.57
2019-04-26T14:25:00.242Z,24.70
2019-04-26T14:27:33.092Z,30.02
2019-04-26T14:30:06.485Z,26.80
2019-04-26T14:32:34.197Z,63.60
2019-04-26T14:35:04.363Z,70.67
2019-04-26T14:37:33.755Z,50.23
2019-04-26T14:40:16.560Z,45.10
2019-04-26T14:42:41.940Z,32.53
2019-04-26T14:45:07.571Z,29.23
2019-04-26T14:47:47.272Z,22.22
2019-04-26T14:50:14.811Z,20.32
2019-04-26T14:52:39.974Z,42.62
2019-04-26T14:55:09.576Z,27.05
2019-04-26T14:57:39.000Z,59.18
2019-04-26T15:00:10.383Z,47.73
2019-04-26T15:02:47.226Z,34.18
2019-04-26T15:05:14.913Z,19.70
2019-04-26T15:07:50.959Z,70.20
2019-04-26T15:10:16.604Z,14.55
2019-04-26T15:12:48.717Z,28.32
2019-04-26T15:15:17.345Z,31.45
2019-04-26T15:17:46.862Z,17.42
2019-04-26T15:20:20.794Z,35.88
2019-04-26T15:22:50.136Z,46.77
2019-04-26T15:25:19.817Z,31.57
2019-04-26T15:27:49.371Z,27.10
2019-04-26T15:30:18.852Z,21.68
2019-04-26T15:32:48.454Z,60.95
2019-04-26T15:35:18.197Z,35.95
2019-04-26T15:37:47.800Z,40.28
2019-04-26T15:40:19.377Z,27.67
2019-04-26T15:43:01.155Z,26.65
2019-04-26T15:45:25.171Z,21.17
2019-04-26T15:47:56.173Z,18.90
2019-04-26T15:50:27.280Z,21.95
2019-04-26T15:52:56.695Z,19.55
2019-04-26T15:55:26.157Z,19.23
2019-04-26T15:57:55.596Z,23.32
2019-04-26T16:00:28.436Z,17.37
2019-04-26T16:02:58.664Z,21.42
2019-04-26T16:05:29.637Z,24.90
2019-04-26T16:08:03.271Z,21.07
2019-04-26T16:10:34.739Z,21.87
2019-04-26T16:13:16.180Z,17.27
2019-04-26T16:15:33.608Z,20.37
2019-04-26T16:18:04.161Z,22.75
2019-04-26T16:20:37.694Z,16.15
2019-04-26T16:23:07.327Z,25.35
2019-04-26T16:25:38.245Z,21.95
2019-04-26T16:28:09.396Z,18.85
2019-04-26T16:30:40.692Z,18.02
2019-04-26T16:33:13.414Z,19.27
2019-04-26T16:35:43.214Z,19.30
2019-04-26T16:38:19.754Z,21.45
2019-04-26T16:40:50.768Z,29.70
2019-04-26T16:43:34.893Z,25.88
2019-04-26T16:45:48.824Z,17.82
2019-04-26T16:48:24.333Z,13.98
2019-04-26T16:50:49.410Z,27.85
2019-04-26T16:53:42.587Z,20.12
2019-04-26T16:56:09.317Z,15.58
2019-04-26T16:58:45.023Z,25.30
2019-04-26T17:01:12.384Z,19.25
2019-04-26T17:03:45.182Z,21.52
2019-04-26T17:06:14.292Z,29.05
2019-04-26T17:08:49.932Z,22.27
2019-04-26T17:11:15.164Z,22.65
2019-04-26T17:13:51.253Z,21.35
2019-04-26T17:16:16.082Z,21.33
2019-04-26T17:18:45.543Z,26.15
2019-04-26T17:21:17.527Z,23.38
2019-04-26T17:23:49.639Z,25.17
2019-04-26T17:26:22.359Z,20.48
2019-04-26T17:28:53.143Z,21.17
2019-04-26T17:31:23.365Z,23.75
2019-04-26T17:33:52.928Z,18.48
2019-04-26T17:36:22.504Z,17.52
2019-04-26T17:38:51.962Z,20.62
2019-04-26T17:41:21.413Z,30.27
2019-04-26T17:43:56.088Z,27.07
2019-04-26T17:46:22.137Z,23.92
2019-04-26T17:48:51.701Z,82.00
2019-04-26T17:51:23.170Z,72.78
2019-04-26T17:54:20.337Z,68.50
2019-04-26T17:56:26.080Z,49.00
2019-04-26T17:58:55.858Z,52.27
2019-04-26T18:01:41.870Z,60.48
2019-04-26T18:03:57.955Z,102.95
2019-04-26T18:06:29.845Z,109.50
2019-04-26T18:08:58.642Z,50.45
2019-04-26T18:11:28.156Z,38.42
2019-04-26T18:13:57.760Z,49.38
2019-04-26T18:16:29.514Z,55.80
2019-04-26T18:19:02.476Z,52.80
2019-04-26T18:21:33.504Z,104.70
2019-04-26T18:24:03.095Z,108.03
2019-04-26T18:26:33.684Z,76.53
2019-04-26T18:29:03.855Z,101.00
2019-04-26T18:31:34.018Z,264.80
2019-04-26T18:34:04.140Z,225.25
2019-04-26T18:36:33.944Z,113.70
2019-04-26T18:39:05.568Z,63.90
2019-04-26T18:41:36.745Z,42.23
2019-04-26T18:44:06.434Z,42.85
2019-04-26T18:46:40.384Z,49.75
2019-04-26T18:49:11.445Z,26.48
2019-04-26T18:51:41.900Z,519.45
2019-04-26T18:54:14.532Z,250.47
2019-04-26T18:56:43.622Z,242.05
2019-04-26T18:59:15.433Z,61.88
2019-04-26T19:01:44.359Z,36.83
2019-04-26T19:04:15.520Z,30.60
2019-04-26T19:06:45.241Z,33.42
2019-04-26T19:09:17.231Z,31.52
2019-04-26T19:11:48.478Z,42.27
2019-04-26T19:14:19.708Z,238.35
2019-04-26T19:16:56.742Z,224.67
2019-04-26T19:19:25.953Z,95.15
2019-04-26T19:21:56.659Z,55.10
2019-04-26T19:24:26.274Z,31.60
2019-04-26T19:26:55.790Z,26.77
2019-04-26T19:29:31.366Z,50.05
2019-04-26T19:32:01.533Z,59.48
2019-04-26T19:34:30.203Z,39.70
2019-04-26T19:37:01.530Z,37.80
2019-04-26T19:39:35.465Z,38.55
2019-04-26T19:42:06.244Z,38.92
2019-04-26T19:44:36.139Z,28.15
2019-04-26T19:47:07.428Z,25.48
2019-04-26T19:49:38.720Z,27.58
2019-04-26T19:52:11.621Z,28.95
2019-04-26T19:54:42.927Z,20.12
2019-04-26T19:57:14.195Z,33.15
2019-04-26T19:59:43.611Z,39.42
2019-04-26T20:02:13.229Z,38.53
2019-04-26T20:04:42.827Z,43.52
2019-04-26T20:07:12.267Z,33.50
2019-04-26T20:09:42.012Z,41.75
2019-04-26T20:12:12.478Z,31.70
2019-04-26T20:14:49.224Z,34.13
2019-04-26T20:17:19.873Z,37.33
2019-04-26T20:19:47.803Z,30.77
2019-04-26T20:22:15.489Z,43.33
2019-04-26T20:24:48.730Z,31.15
2019-04-26T20:27:20.508Z,27.22
2019-04-26T20:29:47.867Z,31.57
2019-04-26T20:32:23.810Z,26.52
2019-04-26T20:34:53.884Z,28.85
2019-04-26T20:37:25.822Z,26.37
2019-04-26T20:40:15.319Z,25.02
2019-04-26T20:42:25.698Z,22.82
2019-04-26T20:44:55.172Z,28.90
2019-04-26T20:47:24.582Z,29.75
2019-04-26T20:50:00.806Z,25.55
2019-04-26T20:52:25.208Z,32.08
2019-04-26T20:54:54.724Z,26.45
2019-04-26T20:57:26.683Z,25.45
2019-04-26T21:00:01.602Z,22.98
2019-04-26T21:02:26.401Z,30.77
2019-04-26T21:04:55.915Z,26.42
2019-04-26T21:07:25.407Z,30.17
2019-04-26T21:09:54.915Z,28.23
2019-04-26T21:12:24.499Z,23.90
2019-04-26T21:14:53.922Z,25.10
2019-04-26T21:17:27.611Z,20.27
2019-04-26T21:19:58.403Z,26.10
2019-04-26T21:22:28.722Z,52.90
2019-04-26T21:24:58.763Z,38.33
2019-04-26T21:27:31.778Z,47.85
2019-04-26T21:30:03.433Z,34.73
2019-04-26T21:32:37.686Z,26.02
2019-04-26T21:35:09.144Z,28.87
2019-04-26T21:37:40.256Z,26.05
2019-04-26T21:40:11.561Z,29.60
2019-04-26T21:42:43.339Z,57.55
2019-04-26T21:45:12.350Z,175.25
2019-04-26T21:47:43.493Z,174.62
2019-04-26T21:50:14.742Z,77.53
2019-04-26T21:52:45.672Z,61.63
2019-04-26T21:55:16.751Z,47.65
2019-04-26T21:57:46.338Z,28.95
2019-04-26T22:00:20.413Z,18.07
2019-04-26T22:02:53.242Z,29.25
2019-04-26T22:05:23.142Z,19.35
2019-04-26T22:07:53.495Z,28.10
2019-04-26T22:10:24.815Z,38.98
2019-04-26T22:12:54.422Z,31.77
2019-04-26T22:15:29.413Z,50.25
2019-04-26T22:17:58.397Z,56.42
2019-04-26T22:20:29.597Z,31.13
2019-04-26T22:23:00.646Z,30.97
2019-04-26T22:25:33.156Z,24.23
2019-04-26T22:28:03.385Z,21.15
2019-04-26T22:30:33.263Z,18.12
2019-04-26T22:33:03.148Z,26.87
2019-04-26T22:35:32.864Z,22.85
2019-04-26T22:38:04.015Z,35.43
2019-04-26T22:40:33.667Z,40.20
2019-04-26T22:43:05.305Z,28.00
2019-04-26T22:45:39.509Z,30.05
2019-04-26T22:48:11.508Z,20.50
2019-04-26T22:50:40.700Z,28.67
2019-04-26T22:53:11.934Z,32.28
2019-04-26T22:55:43.456Z,19.40
2019-04-26T22:58:13.431Z,24.07
2019-04-26T23:00:43.784Z,21.95
2019-04-26T23:03:14.126Z,32.35
2019-04-26T23:05:43.613Z,25.70
2019-04-26T23:08:14.053Z,24.60
2019-04-26T23:10:46.659Z,28.07
2019-04-26T23:13:17.777Z,27.55
2019-04-26T23:15:48.945Z,30.80
2019-04-26T23:18:21.469Z,26.23
2019-04-26T23:20:53.324Z,24.83
2019-04-26T23:23:23.643Z,27.60
2019-04-26T23:25:53.471Z,31.68
2019-04-26T23:28:27.638Z,27.22
2019-04-26T23:30:55.285Z,30.07
2019-04-26T23:33:24.767Z,27.32
2019-04-26T23:35:54.554Z,22.82
2019-04-26T23:38:24.574Z,34.47
2019-04-26T23:41:01.052Z,25.37
2019-04-26T23:43:29.210Z,29.87
2019-04-26T23:45:58.652Z,23.50
2019-04-26T23:48:28.130Z,34.73
2019-04-26T23:50:59.916Z,38.10
2019-04-26T23:53:28.713Z,42.80
2019-04-26T23:55:58.245Z,34.95
2019-04-26T23:58:27.741Z,38.25
